sensor_id;sensor_type;location;lat;lon;timestamp;pressure;altitude;pressure_sealevel;temperature;humidity
50322;BME280;36227;53.366;-1.426;2023-04-25T00:14:29;77035.14;;;-212.52;100.00
50322;BME280;36227;53.366;-1.426;2023-04-25T00:41:08;77162.52;;;-212.04;100.00
50322;BME280;36227;53.366;-1.426;2023-04-25T00:55:40;77096.55;;;-212.52;100.00
50322;BME280;36227;53.366;-1.426;2023-04-25T00:58:05;77133.58;;;-212.04;100.00
50322;BME280;36227;53.366;-1.426;2023-04-25T01:00:30;77183.38;;;-211.57;100.00
50322;BME280;36227;53.366;-1.426;2023-04-25T01:02:55;77167.07;;;-211.57;100.00
50322;BME280;36227;53.366;-1.426;2023-04-25T01:05:21;77127.26;;;-211.57;100.00
50322;BME280;36227;53.366;-1.426;2023-04-25T01:07:46;77178.57;;;-211.57;100.00
50322;BME280;36227;53.366;-1.426;2023-04-25T01:10:11;77163.66;;;-211.33;100.00
50322;BME280;36227;53.366;-1.426;2023-04-25T01:12:37;77185.78;;;-211.09;100.00
50322;BME280;36227;53.366;-1.426;2023-04-25T01:15:03;77149.51;;;-211.33;100.00
50322;BME280;36227;53.366;-1.426;2023-04-25T01:17:28;77210.67;;;-212.04;100.00
50322;BME280;36227;53.366;-1.426;2023-04-25T01:19:53;77158.61;;;-211.80;100.00
50322;BME280;36227;53.366;-1.426;2023-04-25T01:22:18;77204.61;;;-211.57;100.00
50322;BME280;36227;53.366;-1.426;2023-04-25T01:24:44;77283.72;;;-211.33;100.00
50322;BME280;36227;53.366;-1.426;2023-04-25T01:27:09;77262.99;;;-211.09;100.00
50322;BME280;36227;53.366;-1.426;2023-04-25T01:29:36;77271.97;;;-211.09;100.00
50322;BME280;36227;53.366;-1.426;2023-04-25T01:32:01;77281.70;;;-211.09;100.00
50322;BME280;36227;53.366;-1.426;2023-04-25T01:34:27;77332.00;;;-210.85;100.00
50322;BME280;36227;53.366;-1.426;2023-04-25T01:36:53;77291.05;;;-211.09;100.00
50322;BME280;36227;53.366;-1.426;2023-04-25T01:39:19;77316.71;;;-211.57;100.00
50322;BME280;36227;53.366;-1.426;2023-04-25T01:41:44;77306.47;;;-211.09;100.00
50322;BME280;36227;53.366;-1.426;2023-04-25T01:44:09;77267.04;;;-211.09;100.00
50322;BME280;36227;53.366;-1.426;2023-04-25T01:46:35;77403.53;;;-210.85;100.00
50322;BME280;36227;53.366;-1.426;2023-04-25T01:49:00;77243.91;;;-211.09;100.00
50322;BME280;36227;53.366;-1.426;2023-04-25T01:51:25;77298.25;;;-211.09;100.00
50322;BME280;36227;53.366;-1.426;2023-04-25T01:53:51;77308.36;;;-211.09;100.00
50322;BME280;36227;53.366;-1.426;2023-04-25T01:56:22;77272.09;;;-211.09;100.00
50322;BME280;36227;53.366;-1.426;2023-04-25T01:58:50;77265.02;;;-211.09;100.00
50322;BME280;36227;53.366;-1.426;2023-04-25T02:10:48;77371.56;;;-211.33;100.00
50322;BME280;36227;53.366;-1.426;2023-04-25T02:13:14;77354.62;;;-211.33;100.00
50322;BME280;36227;53.366;-1.426;2023-04-25T02:15:39;77375.10;;;-211.09;100.00
50322;BME280;36227;53.366;-1.426;2023-04-25T02:18:05;77384.95;;;-211.09;100.00
50322;BME280;36227;53.366;-1.426;2023-04-25T02:20:32;77286.88;;;-211.57;100.00
50322;BME280;36227;53.366;-1.426;2023-04-25T02:22:56;77345.40;;;-211.57;100.00
50322;BME280;36227;53.366;-1.426;2023-04-25T02:35:22;77207.26;;;-212.04;100.00
50322;BME280;36227;53.366;-1.426;2023-04-25T02:37:33;77266.79;;;-211.57;100.00
50322;BME280;36227;53.366;-1.426;2023-04-25T02:40:00;77225.59;;;-211.80;100.00
50322;BME280;36227;53.366;-1.426;2023-04-25T02:42:23;77225.21;;;-211.57;100.00
50322;BME280;36227;53.366;-1.426;2023-04-25T02:44:48;77293.20;;;-211.57;100.00
50322;BME280;36227;53.366;-1.426;2023-04-25T03:21:05;77195.00;;;-212.04;100.00
50322;BME280;36227;53.366;-1.426;2023-04-25T03:23:36;77306.97;;;-211.33;100.00
50322;BME280;36227;53.366;-1.426;2023-04-25T03:25:56;77377.37;;;-211.33;100.00
50322;BME280;36227;53.366;-1.426;2023-04-25T03:28:22;77396.71;;;-211.09;100.00
50322;BME280;36227;53.366;-1.426;2023-04-25T03:30:48;77407.32;;;-210.85;100.00
50322;BME280;36227;53.366;-1.426;2023-04-25T03:33:13;77373.45;;;-212.04;100.00
50322;BME280;36227;53.366;-1.426;2023-04-25T03:35:38;77363.97;;;-211.09;100.00
50322;BME280;36227;53.366;-1.426;2023-04-25T03:38:11;77431.21;;;-211.09;100.00
50322;BME280;36227;53.366;-1.426;2023-04-25T03:40:29;77452.19;;;-210.85;100.00
50322;BME280;36227;53.366;-1.426;2023-04-25T03:42:55;77366.63;;;-211.09;100.00
50322;BME280;36227;53.366;-1.426;2023-04-25T03:45:20;77305.84;;;-211.09;100.00
50322;BME280;36227;53.366;-1.426;2023-04-25T04:33:47;77444.23;;;-210.85;100.00
50322;BME280;36227;53.366;-1.426;2023-04-25T04:36:13;77420.34;;;-210.61;100.00
50322;BME280;36227;53.366;-1.426;2023-04-25T04:38:38;77441.57;;;-211.57;100.00
50322;BME280;36227;53.366;-1.426;2023-04-25T04:41:03;77419.96;;;-211.09;100.00
50322;BME280;36227;53.366;-1.426;2023-04-25T04:45:54;77475.82;;;-210.61;100.00
50322;BME280;36227;53.366;-1.426;2023-04-25T04:48:19;77463.56;;;-210.85;100.00
50322;BME280;36227;53.366;-1.426;2023-04-25T04:50:44;77473.93;;;-210.37;100.00
50322;BME280;36227;53.366;-1.426;2023-04-25T04:53:09;77447.39;;;-210.61;100.00
50322;BME280;36227;53.366;-1.426;2023-04-25T04:55:35;77372.44;;;-210.61;100.00
50322;BME280;36227;53.366;-1.426;2023-04-25T05:22:19;77382.30;;;-211.57;100.00
50322;BME280;36227;53.366;-1.426;2023-04-25T05:24:42;77346.53;;;-211.57;100.00
50322;BME280;36227;53.366;-1.426;2023-04-25T05:27:07;77360.43;;;-211.33;100.00
50322;BME280;36227;53.366;-1.426;2023-04-25T05:29:33;77405.81;;;-211.09;100.00
50322;BME280;36227;53.366;-1.426;2023-04-25T05:31:57;77375.98;;;-211.09;100.00
50322;BME280;36227;53.366;-1.426;2023-04-25T06:32:32;77332.63;;;-211.80;100.00
50322;BME280;36227;53.366;-1.426;2023-04-25T06:34:57;77265.27;;;-211.57;100.00
50322;BME280;36227;53.366;-1.426;2023-04-25T06:37:22;77278.16;;;-211.57;100.00
50322;BME280;36227;53.366;-1.426;2023-04-25T06:39:48;77217.12;;;-211.57;100.00
50322;BME280;36227;53.366;-1.426;2023-04-25T06:42:14;77257.18;;;-211.57;100.00
50322;BME280;36227;53.366;-1.426;2023-04-25T06:44:39;77156.84;;;-211.57;100.00
50322;BME280;36227;53.366;-1.426;2023-04-25T06:47:04;77228.49;;;-211.57;100.00
50322;BME280;36227;53.366;-1.426;2023-04-25T06:49:29;77272.73;;;-211.33;100.00
50322;BME280;36227;53.366;-1.426;2023-04-25T06:51:55;77248.21;;;-212.04;100.00
50322;BME280;36227;53.366;-1.426;2023-04-25T06:54:20;77204.35;;;-211.80;100.00
50322;BME280;36227;53.366;-1.426;2023-04-25T06:56:46;77250.36;;;-211.57;100.00
50322;BME280;36227;53.366;-1.426;2023-04-25T06:59:11;77204.86;;;-211.57;100.00
50322;BME280;36227;53.366;-1.426;2023-04-25T07:01:36;77253.64;;;-211.33;100.00
50322;BME280;36227;53.366;-1.426;2023-04-25T07:04:02;77266.66;;;-211.33;100.00
50322;BME280;36227;53.366;-1.426;2023-04-25T07:06:27;77269.44;;;-211.33;100.00
50322;BME280;36227;53.366;-1.426;2023-04-25T07:08:52;77266.91;;;-211.33;100.00
50322;BME280;36227;53.366;-1.426;2023-04-25T07:11:17;77269.69;;;-211.33;100.00
50322;BME280;36227;53.366;-1.426;2023-04-25T07:13:43;77198.54;;;-211.80;100.00
50322;BME280;36227;53.366;-1.426;2023-04-25T07:16:08;77229.50;;;-212.04;100.00
50322;BME280;36227;53.366;-1.426;2023-04-25T07:18:33;77215.35;;;-211.57;100.00
50322;BME280;36227;53.366;-1.426;2023-04-25T07:20:58;77167.83;;;-211.57;100.00
50322;BME280;36227;53.366;-1.426;2023-04-25T07:23:24;77253.77;;;-211.33;100.00
50322;BME280;36227;53.366;-1.426;2023-04-25T07:25:49;77198.04;;;-211.57;100.00
50322;BME280;36227;53.366;-1.426;2023-04-25T07:28:14;77139.65;;;-211.57;100.00
50322;BME280;36227;53.366;-1.426;2023-04-25T07:30:50;77245.55;;;-211.33;100.00
50322;BME280;36227;53.366;-1.426;2023-04-25T07:33:05;77217.75;;;-211.33;100.00
50322;BME280;36227;53.366;-1.426;2023-04-25T07:35:31;77231.90;;;-211.80;100.00
50322;BME280;36227;53.366;-1.426;2023-04-25T07:37:56;77156.96;;;-212.28;100.00
50322;BME280;36227;53.366;-1.426;2023-04-25T07:40:21;77117.41;;;-212.04;100.00
50322;BME280;36227;53.366;-1.426;2023-04-25T07:42:46;77249.72;;;-211.57;100.00
50322;BME280;36227;53.366;-1.426;2023-04-25T07:45:11;77121.96;;;-211.80;100.00
50322;BME280;36227;53.366;-1.426;2023-04-25T07:47:37;77159.24;;;-211.57;100.00
50322;BME280;36227;53.366;-1.426;2023-04-25T07:50:02;77117.03;;;-211.80;100.00
50322;BME280;36227;53.366;-1.426;2023-04-25T07:52:28;77164.17;;;-211.80;100.00
50322;BME280;36227;53.366;-1.426;2023-04-25T07:54:54;77104.14;;;-212.04;100.00
50322;BME280;36227;53.366;-1.426;2023-04-25T07:57:19;77110.46;;;-212.04;100.00
50322;BME280;36227;53.366;-1.426;2023-04-25T07:59:44;77156.96;;;-212.28;100.00
50322;BME280;36227;53.366;-1.426;2023-04-25T08:02:09;77102.62;;;-211.80;100.00
50322;BME280;36227;53.366;-1.426;2023-04-25T08:04:35;77137.88;;;-212.04;100.00
50322;BME280;36227;53.366;-1.426;2023-04-25T08:07:00;77095.92;;;-212.04;100.00
50322;BME280;36227;53.366;-1.426;2023-04-25T08:09:25;77177.18;;;-212.04;100.00
50322;BME280;36227;53.366;-1.426;2023-04-25T08:11:51;77173.14;;;-211.33;100.00
50322;BME280;36227;53.366;-1.426;2023-04-25T08:14:16;77168.21;;;-211.57;100.00
50322;BME280;36227;53.366;-1.426;2023-04-25T08:16:42;77078.48;;;-211.80;100.00
50322;BME280;36227;53.366;-1.426;2023-04-25T08:19:07;77117.15;;;-212.04;100.00
50322;BME280;36227;53.366;-1.426;2023-04-25T08:21:32;77159.74;;;-212.28;100.00
50322;BME280;36227;53.366;-1.426;2023-04-25T08:23:57;77098.45;;;-212.04;100.00
50322;BME280;36227;53.366;-1.426;2023-04-25T08:26:23;77041.71;;;-212.04;100.00
50322;BME280;36227;53.366;-1.426;2023-04-25T08:28:48;77103.38;;;-212.04;100.00
50322;BME280;36227;53.366;-1.426;2023-04-25T08:31:13;77118.42;;;-212.04;100.00
50322;BME280;36227;53.366;-1.426;2023-04-25T08:33:38;77068.12;;;-212.04;100.00
50322;BME280;36227;53.366;-1.426;2023-04-25T08:36:04;77022.25;;;-212.28;100.00
50322;BME280;36227;53.366;-1.426;2023-04-25T08:38:29;77095.80;;;-212.04;100.00
50322;BME280;36227;53.366;-1.426;2023-04-25T08:40:55;77083.66;;;-212.04;100.00
50322;BME280;36227;53.366;-1.426;2023-04-25T08:43:21;77040.32;;;-213.00;100.00
50322;BME280;36227;53.366;-1.426;2023-04-25T08:45:45;76992.68;;;-212.76;98.44
50322;BME280;36227;53.366;-1.426;2023-04-25T08:48:12;77109.44;;;-212.04;94.91
50322;BME280;36227;53.366;-1.426;2023-04-25T08:50:35;77112.23;;;-212.04;95.95
50322;BME280;36227;53.366;-1.426;2023-04-25T08:53:04;77080.50;;;-212.04;91.93
50322;BME280;36227;53.366;-1.426;2023-04-25T08:55:26;77086.44;;;-212.04;88.53
50322;BME280;36227;53.366;-1.426;2023-04-25T08:57:51;76974.86;;;-212.28;86.61
50322;BME280;36227;53.366;-1.426;2023-04-25T09:00:17;76993.18;;;-212.04;82.58
50322;BME280;36227;53.366;-1.426;2023-04-25T09:02:42;77002.15;;;-212.28;87.02
50322;BME280;36227;53.366;-1.426;2023-04-25T09:05:08;77046.89;;;-212.76;87.53
50322;BME280;36227;53.366;-1.426;2023-04-25T09:07:33;77049.16;;;-212.28;87.88
50322;BME280;36227;53.366;-1.426;2023-04-25T09:09:58;76982.19;;;-212.52;84.46
50322;BME280;36227;53.366;-1.426;2023-04-25T09:12:23;76978.02;;;-212.52;86.91
50322;BME280;36227;53.366;-1.426;2023-04-25T09:15:03;77026.92;;;-212.28;82.85
50322;BME280;36227;53.366;-1.426;2023-04-25T09:17:14;77005.06;;;-212.28;81.82
50322;BME280;36227;53.366;-1.426;2023-04-25T09:19:39;76982.82;;;-212.28;81.20
50322;BME280;36227;53.366;-1.426;2023-04-25T09:22:04;76976.25;;;-212.28;80.96
50322;BME280;36227;53.366;-1.426;2023-04-25T09:24:33;76978.65;;;-212.04;80.22
50322;BME280;36227;53.366;-1.426;2023-04-25T09:26:55;76921.66;;;-213.00;78.26
50322;BME280;36227;53.366;-1.426;2023-04-25T09:29:29;77059.65;;;-212.52;79.64
50322;BME280;36227;53.366;-1.426;2023-04-25T09:31:47;77066.35;;;-212.04;80.87
50322;BME280;36227;53.366;-1.426;2023-04-25T09:34:11;77007.71;;;-212.28;79.31
50322;BME280;36227;53.366;-1.426;2023-04-25T09:36:37;76966.39;;;-212.52;78.23
50322;BME280;36227;53.366;-1.426;2023-04-25T09:39:02;76967.53;;;-212.04;79.67
50322;BME280;36227;53.366;-1.426;2023-04-25T09:41:27;77036.27;;;-211.80;79.08
50322;BME280;36227;53.366;-1.426;2023-04-25T09:43:57;76995.46;;;-212.04;80.96
50322;BME280;36227;53.366;-1.426;2023-04-25T09:46:18;76925.70;;;-212.04;77.39
50322;BME280;36227;53.366;-1.426;2023-04-25T09:48:49;76957.67;;;-212.76;74.07
50322;BME280;36227;53.366;-1.426;2023-04-25T09:51:09;76965.13;;;-212.52;73.25
50322;BME280;36227;53.366;-1.426;2023-04-25T09:53:34;76942.51;;;-212.28;72.90
50322;BME280;36227;53.366;-1.426;2023-04-25T09:56:00;76913.31;;;-212.28;73.71
50322;BME280;36227;53.366;-1.426;2023-04-25T09:58:25;76871.99;;;-212.52;71.19
50322;BME280;36227;53.366;-1.426;2023-04-25T10:00:50;76852.41;;;-212.52;70.71
50322;BME280;36227;53.366;-1.426;2023-04-25T10:03:15;76895.37;;;-212.52;70.17
50322;BME280;36227;53.366;-1.426;2023-04-25T10:05:41;76859.48;;;-213.00;68.21
50322;BME280;36227;53.366;-1.426;2023-04-25T10:08:05;76932.27;;;-212.28;70.29
50322;BME280;36227;53.366;-1.426;2023-04-25T10:10:31;76952.24;;;-212.52;70.52
50322;BME280;36227;53.366;-1.426;2023-04-25T10:12:56;76992.80;;;-212.28;69.24
50322;BME280;36227;53.366;-1.426;2023-04-25T10:15:22;76882.23;;;-212.52;69.33
50322;BME280;36227;53.366;-1.426;2023-04-25T10:17:46;76810.96;;;-213.00;69.14
50322;BME280;36227;53.366;-1.426;2023-04-25T10:20:11;76889.30;;;-212.28;69.80
50322;BME280;36227;53.366;-1.426;2023-04-25T10:22:39;76878.06;;;-212.52;68.21
50322;BME280;36227;53.366;-1.426;2023-04-25T10:25:02;76847.73;;;-212.52;67.48
50322;BME280;36227;53.366;-1.426;2023-04-25T10:27:28;76897.14;;;-212.28;68.84
50322;BME280;36227;53.366;-1.426;2023-04-25T10:30:02;76891.58;;;-212.52;66.97
50322;BME280;36227;53.366;-1.426;2023-04-25T10:32:18;76797.31;;;-213.48;66.07
50322;BME280;36227;53.366;-1.426;2023-04-25T10:34:43;76747.77;;;-213.48;64.31
50322;BME280;36227;53.366;-1.426;2023-04-25T10:37:10;76916.47;;;-212.28;67.27
50322;BME280;36227;53.366;-1.426;2023-04-25T10:39:34;76867.95;;;-212.52;65.82
50322;BME280;36227;53.366;-1.426;2023-04-25T10:41:59;76845.45;;;-212.52;65.91
50322;BME280;36227;53.366;-1.426;2023-04-25T10:44:27;76630.13;;;-213.00;61.00
50322;BME280;36227;53.366;-1.426;2023-04-25T10:46:50;76748.28;;;-213.00;61.63
50322;BME280;36227;53.366;-1.426;2023-04-25T10:49:28;76788.97;;;-213.00;61.67
50322;BME280;36227;53.366;-1.426;2023-04-25T10:51:41;76777.60;;;-212.76;65.26
50322;BME280;36227;53.366;-1.426;2023-04-25T10:54:07;76803.37;;;-213.48;66.88
50322;BME280;36227;53.366;-1.426;2023-04-25T10:56:33;76762.56;;;-213.24;69.37
50322;BME280;36227;53.366;-1.426;2023-04-25T10:59:05;76809.82;;;-213.00;69.01
50322;BME280;36227;53.366;-1.426;2023-04-25T11:01:25;76775.95;;;-213.00;66.69
50322;BME280;36227;53.366;-1.426;2023-04-25T11:03:48;76665.39;;;-213.48;64.48
50322;BME280;36227;53.366;-1.426;2023-04-25T11:06:22;76766.86;;;-213.00;66.11
50322;BME280;36227;53.366;-1.426;2023-04-25T11:08:47;76743.60;;;-213.00;66.47
50322;BME280;36227;53.366;-1.426;2023-04-25T11:11:04;76660.46;;;-213.24;63.92
50322;BME280;36227;53.366;-1.426;2023-04-25T11:13:30;76736.27;;;-213.00;63.69
50322;BME280;36227;53.366;-1.426;2023-04-25T11:15:55;76801.35;;;-213.48;63.14
50322;BME280;36227;53.366;-1.426;2023-04-25T11:18:20;76628.11;;;-213.96;59.30
50322;BME280;36227;53.366;-1.426;2023-04-25T11:20:48;76527.40;;;-214.20;53.34
50322;BME280;36227;53.366;-1.426;2023-04-25T11:23:11;76550.52;;;-213.96;54.37
50322;BME280;36227;53.366;-1.426;2023-04-25T11:25:36;76845.45;;;-212.52;63.06
50322;BME280;36227;53.366;-1.426;2023-04-25T11:28:01;76794.40;;;-212.52;64.17
50322;BME280;36227;53.366;-1.426;2023-04-25T11:30:27;76735.26;;;-213.00;63.82
50322;BME280;36227;53.366;-1.426;2023-04-25T11:32:52;76649.97;;;-213.24;60.29
50322;BME280;36227;53.366;-1.426;2023-04-25T11:35:17;76679.29;;;-213.24;58.63
50322;BME280;36227;53.366;-1.426;2023-04-25T11:37:43;76745.37;;;-213.48;62.30
50322;BME280;36227;53.366;-1.426;2023-04-25T11:40:08;76734.63;;;-213.48;62.68
50322;BME280;36227;53.366;-1.426;2023-04-25T11:42:33;76601.95;;;-213.48;60.94
50322;BME280;36227;53.366;-1.426;2023-04-25T11:44:58;76695.33;;;-213.48;61.71
50322;BME280;36227;53.366;-1.426;2023-04-25T11:47:28;76597.66;;;-213.48;59.67
50322;BME280;36227;53.366;-1.426;2023-04-25T11:49:50;76760.92;;;-213.00;59.45
50322;BME280;36227;53.366;-1.426;2023-04-25T11:52:13;76672.34;;;-213.24;59.22
50322;BME280;36227;53.366;-1.426;2023-04-25T11:54:38;76608.52;;;-213.48;54.86
50322;BME280;36227;53.366;-1.426;2023-04-25T11:57:04;76581.86;;;-213.48;54.32
50322;BME280;36227;53.366;-1.426;2023-04-25T11:59:29;76526.01;;;-213.96;55.61
50322;BME280;36227;53.366;-1.426;2023-04-25T12:01:54;76529.17;;;-214.20;56.32
50322;BME280;36227;53.366;-1.426;2023-04-25T12:04:22;76708.98;;;-213.24;57.28
50322;BME280;36227;53.366;-1.426;2023-04-25T12:06:46;76594.88;;;-213.24;57.21
50322;BME280;36227;53.366;-1.426;2023-04-25T12:09:12;76542.44;;;-213.48;54.80
50322;BME280;36227;53.366;-1.426;2023-04-25T12:11:41;76682.44;;;-213.00;55.22
50322;BME280;36227;53.366;-1.426;2023-04-25T12:14:03;76624.32;;;-213.00;57.08
50322;BME280;36227;53.366;-1.426;2023-04-25T12:16:27;76631.02;;;-213.24;55.90
50322;BME280;36227;53.366;-1.426;2023-04-25T12:18:52;76466.62;;;-213.96;52.93
50322;BME280;36227;53.366;-1.426;2023-04-25T12:21:17;76635.56;;;-213.48;57.71
50322;BME280;36227;53.366;-1.426;2023-04-25T12:23:42;76597.66;;;-213.96;56.38
50322;BME280;36227;53.366;-1.426;2023-04-25T12:26:07;76610.04;;;-213.48;57.77
50322;BME280;36227;53.366;-1.426;2023-04-25T12:28:33;76702.03;;;-213.00;56.99
50322;BME280;36227;53.366;-1.426;2023-04-25T12:31:00;76497.96;;;-213.48;48.52
50322;BME280;36227;53.366;-1.426;2023-04-25T12:33:23;76548.25;;;-213.96;48.04
50322;BME280;36227;53.366;-1.426;2023-04-25T12:35:48;76503.14;;;-213.96;49.58
50322;BME280;36227;53.366;-1.426;2023-04-25T12:38:22;76635.31;;;-213.48;50.53
50322;BME280;36227;53.366;-1.426;2023-04-25T12:40:39;76553.18;;;-213.48;51.65
50322;BME280;36227;53.366;-1.426;2023-04-25T12:43:04;76643.90;;;-213.24;54.31
50322;BME280;36227;53.366;-1.426;2023-04-25T12:45:29;76604.86;;;-213.96;56.30
50322;BME280;36227;53.366;-1.426;2023-04-25T12:47:54;76636.70;;;-213.48;55.46
50322;BME280;36227;53.366;-1.426;2023-04-25T12:50:19;76645.93;;;-213.00;56.70
50322;BME280;36227;53.366;-1.426;2023-04-25T12:52:45;76667.28;;;-213.00;55.44
50322;BME280;36227;53.366;-1.426;2023-04-25T12:55:10;76588.56;;;-213.48;51.82
50322;BME280;36227;53.366;-1.426;2023-04-25T12:57:35;76591.97;;;-213.96;53.85
50322;BME280;36227;53.366;-1.426;2023-04-25T13:00:01;76514.89;;;-213.48;51.00
50322;BME280;36227;53.366;-1.426;2023-04-25T13:02:26;76558.23;;;-213.48;53.87
50322;BME280;36227;53.366;-1.426;2023-04-25T13:04:52;76326.12;;;-214.20;44.35
50322;BME280;36227;53.366;-1.426;2023-04-25T13:07:17;76533.97;;;-214.43;49.31
50322;BME280;36227;53.366;-1.426;2023-04-25T13:09:43;76540.04;;;-213.96;50.95
50322;BME280;36227;53.366;-1.426;2023-04-25T13:12:08;76544.21;;;-213.96;50.55
50322;BME280;36227;53.366;-1.426;2023-04-25T13:14:33;76357.71;;;-214.20;44.97
50322;BME280;36227;53.366;-1.426;2023-04-25T13:16:58;76266.10;;;-214.20;38.81
50322;BME280;36227;53.366;-1.426;2023-04-25T13:19:24;76264.71;;;-214.67;41.44
50322;BME280;36227;53.366;-1.426;2023-04-25T13:21:49;76559.50;;;-213.72;42.86
50322;BME280;36227;53.366;-1.426;2023-04-25T13:24:15;76350.38;;;-214.20;41.57
50322;BME280;36227;53.366;-1.426;2023-04-25T13:26:41;76529.17;;;-213.48;47.58
50322;BME280;36227;53.366;-1.426;2023-04-25T13:29:05;76475.47;;;-214.67;47.73
50322;BME280;36227;53.366;-1.426;2023-04-25T13:31:32;76464.85;;;-214.43;45.79
50322;BME280;36227;53.366;-1.426;2023-04-25T13:33:55;76489.11;;;-213.96;45.62
50322;BME280;36227;53.366;-1.426;2023-04-25T13:36:21;76319.42;;;-214.43;43.64
50322;BME280;36227;53.366;-1.426;2023-04-25T13:38:46;76473.57;;;-214.20;42.18
50322;BME280;36227;53.366;-1.426;2023-04-25T13:41:11;76506.43;;;-213.48;47.04
50322;BME280;36227;53.366;-1.426;2023-04-25T13:43:37;76494.55;;;-213.72;46.63
50322;BME280;36227;53.366;-1.426;2023-04-25T13:46:01;76293.27;;;-213.72;43.28
50322;BME280;36227;53.366;-1.426;2023-04-25T13:48:27;76273.30;;;-214.43;41.25
50322;BME280;36227;53.366;-1.426;2023-04-25T13:50:52;76331.80;;;-214.91;41.87
50322;BME280;36227;53.366;-1.426;2023-04-25T13:53:17;76371.73;;;-214.43;42.87
50322;BME280;36227;53.366;-1.426;2023-04-25T13:55:42;76284.68;;;-214.67;39.16
50322;BME280;36227;53.366;-1.426;2023-04-25T13:58:07;76288.59;;;-214.43;42.11
50322;BME280;36227;53.366;-1.426;2023-04-25T14:00:35;76169.57;;;-214.67;39.98
50322;BME280;36227;53.366;-1.426;2023-04-25T14:02:58;76134.07;;;-214.91;38.81
50322;BME280;36227;53.366;-1.426;2023-04-25T14:05:23;76409.39;;;-213.96;43.47
50322;BME280;36227;53.366;-1.426;2023-04-25T14:07:48;76414.31;;;-213.96;42.86
50322;BME280;36227;53.366;-1.426;2023-04-25T14:10:14;76164.52;;;-214.43;43.78
50322;BME280;36227;53.366;-1.426;2023-04-25T14:12:39;76028.57;;;-215.39;36.48
50322;BME280;36227;53.366;-1.426;2023-04-25T14:15:05;75921.18;;;-216.11;33.54
50322;BME280;36227;53.366;-1.426;2023-04-25T14:17:30;75976.90;;;-215.87;33.39
50322;BME280;36227;53.366;-1.426;2023-04-25T14:19:55;75987.26;;;-215.39;33.71
50322;BME280;36227;53.366;-1.426;2023-04-25T14:22:20;75997.49;;;-215.39;33.54
50322;BME280;36227;53.366;-1.426;2023-04-25T14:24:46;75964.14;;;-215.87;33.13
50322;BME280;36227;53.366;-1.426;2023-04-25T14:27:11;76046.14;;;-215.39;32.79
50322;BME280;36227;53.366;-1.426;2023-04-25T14:29:36;75751.14;;;-216.11;32.44
50322;BME280;36227;53.366;-1.426;2023-04-25T14:32:01;76019.73;;;-215.39;33.17
50322;BME280;36227;53.366;-1.426;2023-04-25T14:34:27;76040.32;;;-215.39;35.90
50322;BME280;36227;53.366;-1.426;2023-04-25T14:36:52;76237.42;;;-215.39;38.42
50322;BME280;36227;53.366;-1.426;2023-04-25T14:39:17;76056.50;;;-215.39;35.82
50322;BME280;36227;53.366;-1.426;2023-04-25T14:41:42;75817.72;;;-215.87;32.86
50322;BME280;36227;53.366;-1.426;2023-04-25T14:44:07;76045.25;;;-215.63;34.17
50322;BME280;36227;53.366;-1.426;2023-04-25T14:46:32;76056.87;;;-215.39;36.06
50322;BME280;36227;53.366;-1.426;2023-04-25T14:48:57;76131.54;;;-215.15;36.23
50322;BME280;36227;53.366;-1.426;2023-04-25T14:51:23;76196.23;;;-214.91;36.63
50322;BME280;36227;53.366;-1.426;2023-04-25T14:53:48;76108.80;;;-214.91;35.72
50322;BME280;36227;53.366;-1.426;2023-04-25T14:56:13;76347.85;;;-214.67;41.64
50322;BME280;36227;53.366;-1.426;2023-04-25T14:58:39;76209.63;;;-215.39;37.38
50322;BME280;36227;53.366;-1.426;2023-04-25T15:01:03;76138.87;;;-215.39;36.02
50322;BME280;36227;53.366;-1.426;2023-04-25T15:03:29;76054.85;;;-215.63;34.47
50322;BME280;36227;53.366;-1.426;2023-04-25T15:05:55;76222.51;;;-215.15;36.47
50322;BME280;36227;53.366;-1.426;2023-04-25T15:08:19;76182.46;;;-214.91;35.90
50322;BME280;36227;53.366;-1.426;2023-04-25T15:10:45;75950.62;;;-214.91;32.81
50322;BME280;36227;53.366;-1.426;2023-04-25T15:13:10;75870.27;;;-215.39;32.80
50322;BME280;36227;53.366;-1.426;2023-04-25T15:15:35;75975.64;;;-215.39;32.98
50322;BME280;36227;53.366;-1.426;2023-04-25T15:18:01;76043.48;;;-215.39;32.92
50322;BME280;36227;53.366;-1.426;2023-04-25T15:20:26;75707.55;;;-216.83;32.25
50322;BME280;36227;53.366;-1.426;2023-04-25T15:22:51;76012.53;;;-216.11;31.26
50322;BME280;36227;53.366;-1.426;2023-04-25T15:25:17;75754.93;;;-216.11;30.94
50322;BME280;36227;53.366;-1.426;2023-04-25T15:27:42;75804.45;;;-216.35;30.39
50322;BME280;36227;53.366;-1.426;2023-04-25T15:30:08;75548.13;;;-217.07;29.60
50322;BME280;36227;53.366;-1.426;2023-04-25T15:32:32;75452.75;;;-217.07;29.12
50322;BME280;36227;53.366;-1.426;2023-04-25T15:34:58;75666.87;;;-216.83;28.92
50322;BME280;36227;53.366;-1.426;2023-04-25T15:37:23;75818.73;;;-216.35;30.58
50322;BME280;36227;53.366;-1.426;2023-04-25T15:39:48;75828.96;;;-216.11;30.93
50322;BME280;36227;53.366;-1.426;2023-04-25T15:42:14;75664.22;;;-217.07;29.75
50322;BME280;36227;53.366;-1.426;2023-04-25T15:44:39;75575.41;;;-217.30;29.74
50322;BME280;36227;53.366;-1.426;2023-04-25T15:47:04;75509.60;;;-217.30;29.25
50322;BME280;36227;53.366;-1.426;2023-04-25T15:49:29;76018.59;;;-215.87;31.39
50322;BME280;36227;53.366;-1.426;2023-04-25T15:51:54;75962.62;;;-215.87;32.01
50322;BME280;36227;53.366;-1.426;2023-04-25T15:54:20;75788.41;;;-216.35;31.45
50322;BME280;36227;53.366;-1.426;2023-04-25T15:56:45;75883.03;;;-216.35;30.85
50322;BME280;36227;53.366;-1.426;2023-04-25T15:59:10;75902.23;;;-216.11;31.63
50322;BME280;36227;53.366;-1.426;2023-04-25T16:01:36;75829.97;;;-216.11;31.89
50322;BME280;36227;53.366;-1.426;2023-04-25T16:04:01;75874.44;;;-216.59;32.33
50322;BME280;36227;53.366;-1.426;2023-04-25T16:06:26;75745.83;;;-216.83;30.82
50322;BME280;36227;53.366;-1.426;2023-04-25T16:08:51;75686.20;;;-216.83;30.45